sensor_id;sensor_type;location;lat;lon;timestamp;P1;durP1;ratioP1;P2;durP2;ratioP2
1296;SDS011;641;48.492;9.184;2023-10-13T00:00:13;9.90;;;3.27;;
1296;SDS011;641;48.492;9.184;2023-10-13T00:02:50;9.70;;;3.10;;
1296;SDS011;641;48.492;9.184;2023-10-13T00:05:17;11.40;;;3.27;;
1296;SDS011;641;48.492;9.184;2023-10-13T00:07:44;12.90;;;2.97;;
1296;SDS011;641;48.492;9.184;2023-10-13T00:10:10;12.50;;;3.67;;
1296;SDS011;641;48.492;9.184;2023-10-13T00:12:36;10.40;;;3.30;;
1296;SDS011;641;48.492;9.184;2023-10-13T00:15:03;10.03;;;2.93;;
1296;SDS011;641;48.492;9.184;2023-10-13T00:17:31;10.63;;;3.43;;
1296;SDS011;641;48.492;9.184;2023-10-13T00:19:57;9.90;;;3.80;;
1296;SDS011;641;48.492;9.184;2023-10-13T00:22:25;11.50;;;4.10;;
1296;SDS011;641;48.492;9.184;2023-10-13T00:24:56;10.77;;;3.83;;
1296;SDS011;641;48.492;9.184;2023-10-13T00:27:28;20.47;;;4.43;;
1296;SDS011;641;48.492;9.184;2023-10-13T00:29:57;14.23;;;4.23;;
1296;SDS011;641;48.492;9.184;2023-10-13T00:32:48;11.27;;;4.07;;
1296;SDS011;641;48.492;9.184;2023-10-13T00:35:22;11.70;;;4.40;;
1296;SDS011;641;48.492;9.184;2023-10-13T00:37:54;11.73;;;4.50;;
1296;SDS011;641;48.492;9.184;2023-10-13T00:40:22;14.67;;;4.90;;
1296;SDS011;641;48.492;9.184;2023-10-13T00:42:54;11.37;;;4.40;;
1296;SDS011;641;48.492;9.184;2023-10-13T00:45:20;12.90;;;4.60;;
1296;SDS011;641;48.492;9.184;2023-10-13T00:47:48;11.37;;;4.47;;
1296;SDS011;641;48.492;9.184;2023-10-13T00:50:16;11.37;;;3.90;;
1296;SDS011;641;48.492;9.184;2023-10-13T00:52:43;15.03;;;4.30;;
1296;SDS011;641;48.492;9.184;2023-10-13T00:55:12;13.20;;;4.43;;
1296;SDS011;641;48.492;9.184;2023-10-13T00:57:39;13.50;;;4.13;;
1296;SDS011;641;48.492;9.184;2023-10-13T01:00:06;13.20;;;4.67;;
1296;SDS011;641;48.492;9.184;2023-10-13T01:02:45;10.23;;;4.10;;
1296;SDS011;641;48.492;9.184;2023-10-13T01:05:19;10.53;;;4.20;;
1296;SDS011;641;48.492;9.184;2023-10-13T01:07:46;9.80;;;3.80;;
1296;SDS011;641;48.492;9.184;2023-10-13T01:10:19;13.67;;;4.33;;
1296;SDS011;641;48.492;9.184;2023-10-13T01:12:46;10.77;;;3.97;;
1296;SDS011;641;48.492;9.184;2023-10-13T01:15:12;9.23;;;3.20;;
1296;SDS011;641;48.492;9.184;2023-10-13T01:17:42;12.90;;;3.80;;
1296;SDS011;641;48.492;9.184;2023-10-13T01:20:11;9.60;;;4.20;;
1296;SDS011;641;48.492;9.184;2023-10-13T01:22:44;13.03;;;3.73;;
1296;SDS011;641;48.492;9.184;2023-10-13T01:25:14;14.00;;;4.13;;
1296;SDS011;641;48.492;9.184;2023-10-13T01:27:44;9.53;;;3.50;;
1296;SDS011;641;48.492;9.184;2023-10-13T01:30:13;12.70;;;3.90;;
1296;SDS011;641;48.492;9.184;2023-10-13T01:32:48;11.57;;;5.33;;
1296;SDS011;641;48.492;9.184;2023-10-13T01:35:15;130.53;;;26.07;;
1296;SDS011;641;48.492;9.184;2023-10-13T01:37:43;260.80;;;68.20;;
1296;SDS011;641;48.492;9.184;2023-10-13T01:40:12;11.20;;;2.67;;
1296;SDS011;641;48.492;9.184;2023-10-13T01:42:42;335.27;;;157.20;;
1296;SDS011;641;48.492;9.184;2023-10-13T01:45:10;111.20;;;33.23;;
1296;SDS011;641;48.492;9.184;2023-10-13T01:47:38;111.87;;;37.63;;
1296;SDS011;641;48.492;9.184;2023-10-13T01:50:04;33.37;;;11.37;;
1296;SDS011;641;48.492;9.184;2023-10-13T01:52:46;54.53;;;7.53;;
1296;SDS011;641;48.492;9.184;2023-10-13T01:55:12;70.23;;;58.30;;
1296;SDS011;641;48.492;9.184;2023-10-13T01:57:39;100.83;;;73.10;;
1296;SDS011;641;48.492;9.184;2023-10-13T02:00:07;68.63;;;54.30;;
1296;SDS011;641;48.492;9.184;2023-10-13T02:02:43;98.53;;;23.57;;
1296;SDS011;641;48.492;9.184;2023-10-13T02:05:10;297.27;;;229.67;;
1296;SDS011;641;48.492;9.184;2023-10-13T02:07:37;1368.40;;;686.10;;
1296;SDS011;641;48.492;9.184;2023-10-13T02:10:04;50.87;;;10.67;;
1296;SDS011;641;48.492;9.184;2023-10-13T02:12:31;39.30;;;12.83;;
1296;SDS011;641;48.492;9.184;2023-10-13T02:15:19;15.10;;;2.97;;
1296;SDS011;641;48.492;9.184;2023-10-13T02:17:51;63.33;;;46.67;;
1296;SDS011;641;48.492;9.184;2023-10-13T02:20:19;75.73;;;16.63;;
1296;SDS011;641;48.492;9.184;2023-10-13T02:22:48;66.63;;;62.00;;
1296;SDS011;641;48.492;9.184;2023-10-13T02:25:17;244.47;;;64.03;;
1296;SDS011;641;48.492;9.184;2023-10-13T02:28:00;1999.90;;;999.90;;
1296;SDS011;641;48.492;9.184;2023-10-13T02:30:37;1999.90;;;999.90;;
1296;SDS011;641;48.492;9.184;2023-10-13T02:33:03;1999.90;;;999.90;;
1296;SDS011;641;48.492;9.184;2023-10-13T02:35:31;1999.90;;;999.90;;
1296;SDS011;641;48.492;9.184;2023-10-13T02:38:08;1999.90;;;999.90;;
1296;SDS011;641;48.492;9.184;2023-10-13T02:40:38;1999.90;;;999.90;;
1296;SDS011;641;48.492;9.184;2023-10-13T02:43:04;1999.90;;;999.90;;
1296;SDS011;641;48.492;9.184;2023-10-13T02:45:30;1999.90;;;999.90;;
1296;SDS011;641;48.492;9.184;2023-10-13T02:47:57;1999.90;;;999.90;;
1296;SDS011;641;48.492;9.184;2023-10-13T02:50:39;1999.90;;;999.90;;
1296;SDS011;641;48.492;9.184;2023-10-13T02:53:09;1999.90;;;999.90;;
1296;SDS011;641;48.492;9.184;2023-10-13T02:55:37;1999.90;;;999.90;;
1296;SDS011;641;48.492;9.184;2023-10-13T02:58:13;1999.90;;;999.90;;
1296;SDS011;641;48.492;9.184;2023-10-13T03:00:39;1999.90;;;999.90;;
1296;SDS011;641;48.492;9.184;2023-10-13T03:03:06;1999.90;;;999.90;;
1296;SDS011;641;48.492;9.184;2023-10-13T03:05:34;1999.90;;;999.90;;
1296;SDS011;641;48.492;9.184;2023-10-13T03:08:00;1999.90;;;999.90;;
1296;SDS011;641;48.492;9.184;2023-10-13T03:10:29;1999.90;;;999.90;;
1296;SDS011;641;48.492;9.184;2023-10-13T03:12:54;1999.90;;;999.90;;
1296;SDS011;641;48.492;9.184;2023-10-13T03:15:20;1999.90;;;999.90;;
1296;SDS011;641;48.492;9.184;2023-10-13T03:17:55;1999.90;;;999.90;;
1296;SDS011;641;48.492;9.184;2023-10-13T03:20:23;1999.90;;;999.90;;
1296;SDS011;641;48.492;9.184;2023-10-13T03:22:58;1999.90;;;999.90;;
1296;SDS011;641;48.492;9.184;2023-10-13T03:25:24;1999.90;;;999.90;;
1296;SDS011;641;48.492;9.184;2023-10-13T03:27:53;1999.90;;;999.90;;
1296;SDS011;641;48.492;9.184;2023-10-13T03:30:19;1999.90;;;999.90;;
1296;SDS011;641;48.492;9.184;2023-10-13T03:32:55;1999.90;;;999.90;;
1296;SDS011;641;48.492;9.184;2023-10-13T03:35:21;1999.90;;;999.90;;
1296;SDS011;641;48.492;9.184;2023-10-13T03:37:53;1999.90;;;999.90;;
1296;SDS011;641;48.492;9.184;2023-10-13T03:40:20;1999.90;;;999.90;;
1296;SDS011;641;48.492;9.184;2023-10-13T03:42:53;1999.90;;;999.90;;
1296;SDS011;641;48.492;9.184;2023-10-13T03:45:36;1999.90;;;999.90;;
1296;SDS011;641;48.492;9.184;2023-10-13T03:48:05;1999.90;;;999.90;;
1296;SDS011;641;48.492;9.184;2023-10-13T03:50:37;1999.90;;;999.90;;
1296;SDS011;641;48.492;9.184;2023-10-13T03:53:11;1999.90;;;999.90;;
1296;SDS011;641;48.492;9.184;2023-10-13T03:55:38;1999.90;;;999.90;;
1296;SDS011;641;48.492;9.184;2023-10-13T03:58:04;1999.90;;;999.90;;
1296;SDS011;641;48.492;9.184;2023-10-13T04:00:30;1999.90;;;999.90;;
1296;SDS011;641;48.492;9.184;2023-10-13T04:02:56;1999.90;;;999.90;;
1296;SDS011;641;48.492;9.184;2023-10-13T04:05:34;1999.90;;;999.90;;
1296;SDS011;641;48.492;9.184;2023-10-13T04:08:03;1999.90;;;999.90;;
1296;SDS011;641;48.492;9.184;2023-10-13T04:10:48;1999.90;;;999.90;;
1296;SDS011;641;48.492;9.184;2023-10-13T04:13:16;1999.90;;;999.90;;
1296;SDS011;641;48.492;9.184;2023-10-13T04:16:00;1999.90;;;999.90;;
1296;SDS011;641;48.492;9.184;2023-10-13T04:18:44;1999.90;;;999.90;;
1296;SDS011;641;48.492;9.184;2023-10-13T04:21:19;1999.90;;;999.90;;
1296;SDS011;641;48.492;9.184;2023-10-13T04:24:04;1999.90;;;999.90;;
1296;SDS011;641;48.492;9.184;2023-10-13T04:26:42;1999.90;;;999.90;;
1296;SDS011;641;48.492;9.184;2023-10-13T04:29:24;1999.90;;;999.90;;
1296;SDS011;641;48.492;9.184;2023-10-13T04:32:10;1999.90;;;999.90;;
1296;SDS011;641;48.492;9.184;2023-10-13T04:34:41;1999.90;;;999.90;;
1296;SDS011;641;48.492;9.184;2023-10-13T04:37:13;1999.90;;;999.90;;
1296;SDS011;641;48.492;9.184;2023-10-13T04:40:08;1999.90;;;999.90;;
1296;SDS011;641;48.492;9.184;2023-10-13T04:42:35;1999.90;;;999.90;;
1296;SDS011;641;48.492;9.184;2023-10-13T04:45:05;1999.90;;;999.90;;
1296;SDS011;641;48.492;9.184;2023-10-13T04:47:53;1999.90;;;999.90;;
1296;SDS011;641;48.492;9.184;2023-10-13T04:50:22;1999.90;;;999.90;;
1296;SDS011;641;48.492;9.184;2023-10-13T04:52:52;1999.90;;;999.90;;
1296;SDS011;641;48.492;9.184;2023-10-13T04:55:27;1999.90;;;999.90;;
1296;SDS011;641;48.492;9.184;2023-10-13T04:58:24;1999.90;;;999.90;;
1296;SDS011;641;48.492;9.184;2023-10-13T05:00:58;1999.90;;;999.90;;
1296;SDS011;641;48.492;9.184;2023-10-13T05:03:43;1999.90;;;999.90;;
1296;SDS011;641;48.492;9.184;2023-10-13T05:06:27;1999.90;;;999.90;;
1296;SDS011;641;48.492;9.184;2023-10-13T05:09:11;1999.90;;;999.90;;
1296;SDS011;641;48.492;9.184;2023-10-13T05:11:56;1999.90;;;999.90;;
1296;SDS011;641;48.492;9.184;2023-10-13T05:14:41;1999.90;;;999.90;;
1296;SDS011;641;48.492;9.184;2023-10-13T05:17:25;1999.90;;;999.90;;
1296;SDS011;641;48.492;9.184;2023-10-13T05:20:09;1999.90;;;999.90;;
1296;SDS011;641;48.492;9.184;2023-10-13T05:22:53;1999.90;;;999.90;;
1296;SDS011;641;48.492;9.184;2023-10-13T05:25:37;1999.90;;;999.90;;
1296;SDS011;641;48.492;9.184;2023-10-13T05:28:22;1999.90;;;999.90;;
1296;SDS011;641;48.492;9.184;2023-10-13T05:31:06;1999.90;;;999.90;;
1296;SDS011;641;48.492;9.184;2023-10-13T05:33:51;1999.90;;;999.90;;
1296;SDS011;641;48.492;9.184;2023-10-13T05:36:52;1999.90;;;999.90;;
1296;SDS011;641;48.492;9.184;2023-10-13T05:39:36;1999.90;;;999.90;;
1296;SDS011;641;48.492;9.184;2023-10-13T05:42:20;1999.90;;;999.90;;
1296;SDS011;641;48.492;9.184;2023-10-13T05:45:04;1999.90;;;999.90;;
1296;SDS011;641;48.492;9.184;2023-10-13T05:47:42;1999.90;;;999.90;;
1296;SDS011;641;48.492;9.184;2023-10-13T05:50:11;1999.90;;;999.90;;
1296;SDS011;641;48.492;9.184;2023-10-13T05:52:39;1999.90;;;999.90;;
1296;SDS011;641;48.492;9.184;2023-10-13T05:55:25;1999.90;;;999.90;;
1296;SDS011;641;48.492;9.184;2023-10-13T05:58:11;1999.90;;;999.90;;
1296;SDS011;641;48.492;9.184;2023-10-13T06:00:55;1999.90;;;999.90;;
1296;SDS011;641;48.492;9.184;2023-10-13T06:03:40;1999.90;;;999.90;;
1296;SDS011;641;48.492;9.184;2023-10-13T06:06:24;1999.90;;;999.90;;
1296;SDS011;641;48.492;9.184;2023-10-13T06:09:08;1999.90;;;999.90;;
1296;SDS011;641;48.492;9.184;2023-10-13T06:11:52;1999.90;;;999.90;;
1296;SDS011;641;48.492;9.184;2023-10-13T06:14:36;1999.90;;;999.90;;
1296;SDS011;641;48.492;9.184;2023-10-13T06:17:20;1999.90;;;999.90;;
1296;SDS011;641;48.492;9.184;2023-10-13T06:20:05;1999.90;;;999.90;;
1296;SDS011;641;48.492;9.184;2023-10-13T06:22:49;1999.90;;;999.90;;
1296;SDS011;641;48.492;9.184;2023-10-13T06:25:33;1999.90;;;999.90;;
1296;SDS011;641;48.492;9.184;2023-10-13T06:28:17;1999.90;;;999.90;;
1296;SDS011;641;48.492;9.184;2023-10-13T06:31:03;1999.90;;;999.90;;
1296;SDS011;641;48.492;9.184;2023-10-13T06:33:33;1999.90;;;999.90;;
1296;SDS011;641;48.492;9.184;2023-10-13T06:35:59;1999.90;;;999.90;;
1296;SDS011;641;48.492;9.184;2023-10-13T06:38:26;1999.90;;;999.90;;
1296;SDS011;641;48.492;9.184;2023-10-13T06:41:00;1999.90;;;999.90;;
1296;SDS011;641;48.492;9.184;2023-10-13T06:43:32;1999.90;;;999.90;;
1296;SDS011;641;48.492;9.184;2023-10-13T06:46:04;1999.90;;;999.90;;
1296;SDS011;641;48.492;9.184;2023-10-13T06:48:32;1999.90;;;999.90;;
1296;SDS011;641;48.492;9.184;2023-10-13T06:50:59;1999.90;;;999.90;;
1296;SDS011;641;48.492;9.184;2023-10-13T06:53:46;1999.90;;;999.90;;
1296;SDS011;641;48.492;9.184;2023-10-13T06:56:16;1999.90;;;999.90;;
1296;SDS011;641;48.492;9.184;2023-10-13T06:58:47;1999.90;;;999.90;;
1296;SDS011;641;48.492;9.184;2023-10-13T07:01:12;1999.90;;;999.90;;
1296;SDS011;641;48.492;9.184;2023-10-13T07:03:40;1999.90;;;999.90;;
1296;SDS011;641;48.492;9.184;2023-10-13T07:06:14;1999.90;;;999.90;;
1296;SDS011;641;48.492;9.184;2023-10-13T07:08:44;1999.90;;;999.90;;
1296;SDS011;641;48.492;9.184;2023-10-13T07:11:16;1999.90;;;999.90;;
1296;SDS011;641;48.492;9.184;2023-10-13T07:13:58;1999.90;;;999.90;;
1296;SDS011;641;48.492;9.184;2023-10-13T07:16:25;1999.90;;;999.90;;
1296;SDS011;641;48.492;9.184;2023-10-13T07:19:00;1999.90;;;999.90;;
1296;SDS011;641;48.492;9.184;2023-10-13T07:21:30;1999.90;;;999.90;;
1296;SDS011;641;48.492;9.184;2023-10-13T07:23:56;1999.90;;;999.90;;
1296;SDS011;641;48.492;9.184;2023-10-13T07:26:36;1999.90;;;999.90;;
1296;SDS011;641;48.492;9.184;2023-10-13T07:29:08;1999.90;;;999.90;;
1296;SDS011;641;48.492;9.184;2023-10-13T07:31:35;1999.90;;;999.90;;
1296;SDS011;641;48.492;9.184;2023-10-13T07:34:02;1999.90;;;999.90;;
1296;SDS011;641;48.492;9.184;2023-10-13T07:36:37;1999.90;;;999.90;;
1296;SDS011;641;48.492;9.184;2023-10-13T07:39:04;1999.90;;;999.90;;
1296;SDS011;641;48.492;9.184;2023-10-13T07:41:47;1999.90;;;999.90;;
1296;SDS011;641;48.492;9.184;2023-10-13T07:44:16;1999.90;;;999.90;;
1296;SDS011;641;48.492;9.184;2023-10-13T07:46:45;1999.90;;;999.90;;
1296;SDS011;641;48.492;9.184;2023-10-13T07:49:14;1999.90;;;999.90;;
1296;SDS011;641;48.492;9.184;2023-10-13T07:51:40;1999.90;;;999.90;;
1296;SDS011;641;48.492;9.184;2023-10-13T07:54:18;1999.90;;;999.90;;
1296;SDS011;641;48.492;9.184;2023-10-13T07:56:49;1999.90;;;999.90;;
1296;SDS011;641;48.492;9.184;2023-10-13T07:59:15;1999.90;;;999.90;;
1296;SDS011;641;48.492;9.184;2023-10-13T08:01:41;1999.90;;;999.90;;
1296;SDS011;641;48.492;9.184;2023-10-13T08:04:08;1999.90;;;999.90;;
1296;SDS011;641;48.492;9.184;2023-10-13T08:06:37;1999.90;;;999.90;;
1296;SDS011;641;48.492;9.184;2023-10-13T08:09:05;1999.90;;;999.90;;
1296;SDS011;641;48.492;9.184;2023-10-13T08:11:34;1999.90;;;999.90;;
1296;SDS011;641;48.492;9.184;2023-10-13T08:14:02;1999.90;;;999.90;;
1296;SDS011;641;48.492;9.184;2023-10-13T08:16:47;1999.90;;;999.90;;
1296;SDS011;641;48.492;9.184;2023-10-13T08:19:25;1999.90;;;999.90;;
1296;SDS011;641;48.492;9.184;2023-10-13T08:22:10;1999.90;;;999.90;;
1296;SDS011;641;48.492;9.184;2023-10-13T08:24:48;1999.90;;;999.90;;
1296;SDS011;641;48.492;9.184;2023-10-13T08:27:19;1999.90;;;999.90;;
1296;SDS011;641;48.492;9.184;2023-10-13T08:30:13;15.80;;;5.83;;
1296;SDS011;641;48.492;9.184;2023-10-13T08:32:51;16.40;;;6.00;;
1296;SDS011;641;48.492;9.184;2023-10-13T08:35:22;15.63;;;5.30;;
1296;SDS011;641;48.492;9.184;2023-10-13T08:38:08;14.00;;;5.50;;
1296;SDS011;641;48.492;9.184;2023-10-13T08:40:42;15.07;;;6.03;;
1296;SDS011;641;48.492;9.184;2023-10-13T08:43:28;24.60;;;6.83;;
1296;SDS011;641;48.492;9.184;2023-10-13T08:46:07;14.30;;;4.97;;
1296;SDS011;641;48.492;9.184;2023-10-13T08:48:34;22.07;;;6.17;;
1296;SDS011;641;48.492;9.184;2023-10-13T08:51:01;13.70;;;4.80;;
1296;SDS011;641;48.492;9.184;2023-10-13T08:53:36;29.13;;;6.00;;
1296;SDS011;641;48.492;9.184;2023-10-13T08:56:16;17.20;;;5.10;;
1296;SDS011;641;48.492;9.184;2023-10-13T08:58:59;13.17;;;4.30;;
1296;SDS011;641;48.492;9.184;2023-10-13T09:01:34;38.93;;;7.97;;
1296;SDS011;641;48.492;9.184;2023-10-13T09:04:08;22.83;;;5.87;;
1296;SDS011;641;48.492;9.184;2023-10-13T09:06:54;15.73;;;5.20;;
1296;SDS011;641;48.492;9.184;2023-10-13T09:09:50;12.63;;;4.47;;
1296;SDS011;641;48.492;9.184;2023-10-13T09:14:51;14.80;;;4.70;;
1296;SDS011;641;48.492;9.184;2023-10-13T09:17:29;13.23;;;4.73;;
1296;SDS011;641;48.492;9.184;2023-10-13T09:19:59;42.87;;;7.90;;
1296;SDS011;641;48.492;9.184;2023-10-13T09:22:44;15.40;;;5.60;;
1296;SDS011;641;48.492;9.184;2023-10-13T09:25:21;22.20;;;5.80;;
1296;SDS011;641;48.492;9.184;2023-10-13T09:27:48;19.70;;;5.67;;
1296;SDS011;641;48.492;9.184;2023-10-13T09:30:18;16.40;;;4.57;;
1296;SDS011;641;48.492;9.184;2023-10-13T09:32:45;28.53;;;6.60;;
1296;SDS011;641;48.492;9.184;2023-10-13T09:35:14;18.20;;;5.63;;
1296;SDS011;641;48.492;9.184;2023-10-13T09:37:46;16.70;;;5.43;;
1296;SDS011;641;48.492;9.184;2023-10-13T09:40:15;20.60;;;5.30;;
1296;SDS011;641;48.492;9.184;2023-10-13T09:42:53;15.60;;;6.23;;
1296;SDS011;641;48.492;9.184;2023-10-13T09:45:28;23.50;;;6.53;;
1296;SDS011;641;48.492;9.184;2023-10-13T09:47:59;12.63;;;4.70;;
1296;SDS011;641;48.492;9.184;2023-10-13T09:50:33;18.90;;;4.73;;
1296;SDS011;641;48.492;9.184;2023-10-13T09:53:05;16.73;;;5.80;;
1296;SDS011;641;48.492;9.184;2023-10-13T09:55:36;14.80;;;4.80;;
1296;SDS011;641;48.492;9.184;2023-10-13T09:58:06;18.00;;;4.20;;
1296;SDS011;641;48.492;9.184;2023-10-13T10:00:49;18.10;;;4.40;;
1296;SDS011;641;48.492;9.184;2023-10-13T10:03:26;19.30;;;4.30;;
1296;SDS011;641;48.492;9.184;2023-10-13T10:05:56;14.97;;;4.50;;
1296;SDS011;641;48.492;9.184;2023-10-13T10:08:29;12.80;;;3.93;;
1296;SDS011;641;48.492;9.184;2023-10-13T10:13:55;13.10;;;4.20;;
1296;SDS011;641;48.492;9.184;2023-10-13T10:17:07;12.90;;;2.33;;
1296;SDS011;641;48.492;9.184;2023-10-13T10:19:47;15.77;;;3.47;;
1296;SDS011;641;48.492;9.184;2023-10-13T10:22:13;10.37;;;2.40;;
1296;SDS011;641;48.492;9.184;2023-10-13T10:25:01;10.27;;;2.30;;
1296;SDS011;641;48.492;9.184;2023-10-13T10:27:54;9.67;;;2.53;;
1296;SDS011;641;48.492;9.184;2023-10-13T10:30:27;12.17;;;2.83;;
1296;SDS011;641;48.492;9.184;2023-10-13T10:32:54;11.97;;;3.07;;
1296;SDS011;641;48.492;9.184;2023-10-13T10:35:24;11.20;;;3.40;;
1296;SDS011;641;48.492;9.184;2023-10-13T10:38:07;11.73;;;3.27;;
1296;SDS011;641;48.492;9.184;2023-10-13T10:40:47;12.67;;;3.00;;
1296;SDS011;641;48.492;9.184;2023-10-13T10:43:22;12.23;;;2.87;;
1296;SDS011;641;48.492;9.184;2023-10-13T10:45:51;8.57;;;2.77;;
1296;SDS011;641;48.492;9.184;2023-10-13T10:48:17;11.23;;;3.27;;
1296;SDS011;641;48.492;9.184;2023-10-13T10:50:53;12.80;;;2.70;;
1296;SDS011;641;48.492;9.184;2023-10-13T10:53:23;9.60;;;2.70;;
1296;SDS011;641;48.492;9.184;2023-10-13T10:56:12;11.10;;;2.70;;
1296;SDS011;641;48.492;9.184;2023-10-13T10:58:45;11.07;;;2.53;;
1296;SDS011;641;48.492;9.184;2023-10-13T11:01:12;11.43;;;2.93;;
1296;SDS011;641;48.492;9.184;2023-10-13T11:04:01;11.50;;;3.30;;
1296;SDS011;641;48.492;9.184;2023-10-13T11:06:50;11.90;;;3.50;;
1296;SDS011;641;48.492;9.184;2023-10-13T11:09:29;13.20;;;3.87;;
1296;SDS011;641;48.492;9.184;2023-10-13T11:12:11;11.03;;;2.97;;
1296;SDS011;641;48.492;9.184;2023-10-13T11:14:40;11.73;;;3.27;;
1296;SDS011;641;48.492;9.184;2023-10-13T11:17:20;11.40;;;3.13;;
1296;SDS011;641;48.492;9.184;2023-10-13T11:19:51;11.37;;;4.00;;
1296;SDS011;641;48.492;9.184;2023-10-13T11:22:18;11.40;;;3.10;;
1296;SDS011;641;48.492;9.184;2023-10-13T11:24:57;10.27;;;3.00;;
1296;SDS011;641;48.492;9.184;2023-10-13T11:27:34;12.67;;;2.90;;
1296;SDS011;641;48.492;9.184;2023-10-13T11:30:12;13.80;;;3.80;;
1296;SDS011;641;48.492;9.184;2023-10-13T11:32:45;10.60;;;2.80;;
1296;SDS011;641;48.492;9.184;2023-10-13T11:35:21;9.97;;;2.73;;
1296;SDS011;641;48.492;9.184;2023-10-13T11:37:48;13.40;;;3.23;;
1296;SDS011;641;48.492;9.184;2023-10-13T11:40:33;12.97;;;3.00;;
1296;SDS011;641;48.492;9.184;2023-10-13T11:43:17;16.43;;;3.47;;
1296;SDS011;641;48.492;9.184;2023-10-13T11:45:50;11.63;;;3.00;;
1296;SDS011;641;48.492;9.184;2023-10-13T11:48:39;15.20;;;3.53;;
1296;SDS011;641;48.492;9.184;2023-10-13T11:51:10;13.57;;;3.57;;
1296;SDS011;641;48.492;9.184;2023-10-13T11:53:43;11.87;;;3.70;;
1296;SDS011;641;48.492;9.184;2023-10-13T11:56:19;12.70;;;3.00;;
1296;SDS011;641;48.492;9.184;2023-10-13T11:58:47;13.90;;;2.93;;
1296;SDS011;641;48.492;9.184;2023-10-13T12:01:14;13.73;;;3.90;;
1296;SDS011;641;48.492;9.184;2023-10-13T12:03:40;14.70;;;2.90;;
1296;SDS011;641;48.492;9.184;2023-10-13T12:06:25;13.60;;;3.50;;
1296;SDS011;641;48.492;9.184;2023-10-13T12:09:03;12.40;;;3.37;;
1296;SDS011;641;48.492;9.184;2023-10-13T12:11:50;14.17;;;4.47;;
1296;SDS011;641;48.492;9.184;2023-10-13T12:14:16;12.30;;;3.47;;
1296;SDS011;641;48.492;9.184;2023-10-13T12:17:02;11.57;;;3.30;;
1296;SDS011;641;48.492;9.184;2023-10-13T12:19:35;12.97;;;3.10;;
1296;SDS011;641;48.492;9.184;2023-10-13T12:22:01;11.33;;;3.13;;
1296;SDS011;641;48.492;9.184;2023-10-13T12:24:33;11.10;;;3.33;;
1296;SDS011;641;48.492;9.184;2023-10-13T12:27:02;17.70;;;4.40;;
1296;SDS011;641;48.492;9.184;2023-10-13T12:29:43;15.60;;;3.50;;
1296;SDS011;641;48.492;9.184;2023-10-13T12:32:12;15.13;;;4.17;;
1296;SDS011;641;48.492;9.184;2023-10-13T12:34:39;10.53;;;2.70;;
1296;SDS011;641;48.492;9.184;2023-10-13T12:37:24;15.03;;;3.83;;
1296;SDS011;641;48.492;9.184;2023-10-13T12:42:56;11.70;;;2.83;;
1296;SDS011;641;48.492;9.184;2023-10-13T12:45:43;13.10;;;3.10;;
1296;SDS011;641;48.492;9.184;2023-10-13T12:48:29;11.00;;;2.77;;
1296;SDS011;641;48.492;9.184;2023-10-13T12:51:14;9.90;;;2.90;;
1296;SDS011;641;48.492;9.184;2023-10-13T12:53:47;17.27;;;3.40;;
1296;SDS011;641;48.492;9.184;2023-10-13T12:56:14;11.93;;;2.97;;
1296;SDS011;641;48.492;9.184;2023-10-13T12:58:43;14.43;;;3.50;;
1296;SDS011;641;48.492;9.184;2023-10-13T13:01:20;9.13;;;2.97;;
1296;SDS011;641;48.492;9.184;2023-10-13T13:03:47;16.40;;;3.20;;
1296;SDS011;641;48.492;9.184;2023-10-13T13:06:20;14.50;;;3.83;;
1296;SDS011;641;48.492;9.184;2023-10-13T13:08:50;12.60;;;3.07;;
1296;SDS011;641;48.492;9.184;2023-10-13T13:11:20;12.33;;;4.13;;
1296;SDS011;641;48.492;9.184;2023-10-13T13:13:46;9.97;;;2.80;;
1296;SDS011;641;48.492;9.184;2023-10-13T13:16:12;15.80;;;3.40;;
1296;SDS011;641;48.492;9.184;2023-10-13T13:18:39;11.00;;;3.27;;
1296;SDS011;641;48.492;9.184;2023-10-13T13:21:04;12.23;;;3.40;;
1296;SDS011;641;48.492;9.184;2023-10-13T13:23:37;15.13;;;3.50;;
1296;SDS011;641;48.492;9.184;2023-10-13T13:26:05;18.80;;;4.87;;
1296;SDS011;641;48.492;9.184;2023-10-13T13:28:40;14.80;;;3.60;;
1296;SDS011;641;48.492;9.184;2023-10-13T13:31:07;15.50;;;4.23;;
1296;SDS011;641;48.492;9.184;2023-10-13T13:33:33;12.13;;;2.90;;
1296;SDS011;641;48.492;9.184;2023-10-13T13:36:04;12.67;;;3.40;;
1296;SDS011;641;48.492;9.184;2023-10-13T13:38:30;13.10;;;3.13;;
1296;SDS011;641;48.492;9.184;2023-10-13T13:40:57;9.23;;;2.80;;
1296;SDS011;641;48.492;9.184;2023-10-13T13:43:23;12.73;;;4.27;;
1296;SDS011;641;48.492;9.184;2023-10-13T13:46:08;12.77;;;4.20;;
1296;SDS011;641;48.492;9.184;2023-10-13T13:48:36;14.13;;;4.20;;
1296;SDS011;641;48.492;9.184;2023-10-13T13:51:08;11.27;;;2.87;;
1296;SDS011;641;48.492;9.184;2023-10-13T13:53:40;13.50;;;3.20;;
1296;SDS011;641;48.492;9.184;2023-10-13T13:56:15;12.90;;;3.00;;
1296;SDS011;641;48.492;9.184;2023-10-13T13:58:42;13.30;;;3.77;;
1296;SDS011;641;48.492;9.184;2023-10-13T14:01:08;10.70;;;3.13;;
1296;SDS011;641;48.492;9.184;2023-10-13T14:03:40;11.03;;;3.20;;
1296;SDS011;641;48.492;9.184;2023-10-13T14:06:13;11.40;;;2.47;;
1296;SDS011;641;48.492;9.184;2023-10-13T14:08:49;13.70;;;4.87;;
1296;SDS011;641;48.492;9.184;2023-10-13T14:11:17;14.63;;;2.83;;
1296;SDS011;641;48.492;9.184;2023-10-13T14:14:02;12.90;;;3.40;;
1296;SDS011;641;48.492;9.184;2023-10-13T14:16:29;10.20;;;3.30;;
1296;SDS011;641;48.492;9.184;2023-10-13T14:18:58;14.93;;;3.10;;
1296;SDS011;641;48.492;9.184;2023-10-13T14:21:26;14.27;;;4.07;;
1296;SDS011;641;48.492;9.184;2023-10-13T14:23:53;15.03;;;3.80;;
1296;SDS011;641;48.492;9.184;2023-10-13T14:26:19;14.03;;;2.87;;
1296;SDS011;641;48.492;9.184;2023-10-13T14:28:51;11.07;;;2.70;;
1296;SDS011;641;48.492;9.184;2023-10-13T14:31:27;15.10;;;4.17;;
1296;SDS011;641;48.492;9.184;2023-10-13T14:33:53;10.50;;;3.53;;
1296;SDS011;641;48.492;9.184;2023-10-13T14:36:18;9.43;;;2.77;;
1296;SDS011;641;48.492;9.184;2023-10-13T14:38:47;11.20;;;3.20;;
1296;SDS011;641;48.492;9.184;2023-10-13T14:41:16;11.10;;;2.63;;
1296;SDS011;641;48.492;9.184;2023-10-13T14:43:43;14.17;;;4.10;;
1296;SDS011;641;48.492;9.184;2023-10-13T14:46:15;16.63;;;3.27;;
1296;SDS011;641;48.492;9.184;2023-10-13T14:48:41;11.97;;;2.70;;
1296;SDS011;641;48.492;9.184;2023-10-13T14:51:11;16.77;;;3.50;;
1296;SDS011;641;48.492;9.184;2023-10-13T14:53:43;10.70;;;2.93;;
1296;SDS011;641;48.492;9.184;2023-10-13T14:56:18;10.83;;;2.93;;
1296;SDS011;641;48.492;9.184;2023-10-13T14:58:44;12.83;;;3.23;;
1296;SDS011;641;48.492;9.184;2023-10-13T15:01:13;15.23;;;3.03;;
1296;SDS011;641;48.492;9.184;2023-10-13T15:03:40;14.47;;;2.40;;
1296;SDS011;641;48.492;9.184;2023-10-13T15:06:19;15.37;;;3.43;;
1296;SDS011;641;48.492;9.184;2023-10-13T15:08:49;15.93;;;3.70;;
1296;SDS011;641;48.492;9.184;2023-10-13T15:11:14;14.50;;;3.73;;
1296;SDS011;641;48.492;9.184;2023-10-13T15:13:40;16.40;;;3.90;;
1296;SDS011;641;48.492;9.184;2023-10-13T15:16:13;12.77;;;2.93;;
1296;SDS011;641;48.492;9.184;2023-10-13T15:18:40;13.20;;;3.67;;
1296;SDS011;641;48.492;9.184;2023-10-13T15:21:05;17.17;;;3.90;;
1296;SDS011;641;48.492;9.184;2023-10-13T15:23:33;10.17;;;2.60;;
1296;SDS011;641;48.492;9.184;2023-10-13T15:26:07;12.77;;;3.20;;
1296;SDS011;641;48.492;9.184;2023-10-13T15:28:34;10.03;;;2.37;;
1296;SDS011;641;48.492;9.184;2023-10-13T15:31:02;15.30;;;3.43;;
1296;SDS011;641;48.492;9.184;2023-10-13T15:33:49;12.83;;;3.20;;
1296;SDS011;641;48.492;9.184;2023-10-13T15:36:17;12.40;;;3.30;;
1296;SDS011;641;48.492;9.184;2023-10-13T15:38:46;13.67;;;3.63;;